< Typhoon 199326 1993 Season Typhoon 199328 >
Typhoon 199327 (MANNY)
General InformationTrack Information on Google MapsDetailed Wind InformationList of All Images || Disaster Info.ResourceGoogle EarthGE AnimationAtom FeedGeoJSON
Detalied Best Track (Time Zone = UTC)
Year Month Day Hour Lat. Long. Pressure (hPa) Wind (kt) Class Image Chart
1993 12 3 00 7.0 156.0 1004 0 2 Image Chart
1993 12 3 06 7.0 154.0 1004 0 2 Image Chart
1993 12 3 12 7.0 152.0 1004 0 2 Image Chart
1993 12 3 18 7.0 150.0 1004 0 2 Image Chart
1993 12 4 00 7.2 148.0 1004 0 2 Image Chart
1993 12 4 06 7.5 146.0 1002 0 2 Image Chart
1993 12 4 12 8.0 144.5 1000 0 2 Image Chart
1993 12 4 18 8.5 142.8 1000 0 2 Image Chart
1993 12 5 00 9.0 141.0 996 35 3 Image Chart
1993 12 5 06 9.5 139.2 990 45 3 Image Chart
1993 12 5 12 10.0 137.5 985 55 4 Image Chart
1993 12 5 18 10.7 135.8 980 55 4 Image Chart
1993 12 6 00 11.6 134.6 980 55 4 Image Chart
1993 12 6 06 12.6 133.6 980 55 4 Image Chart
1993 12 6 12 13.4 132.4 980 55 4 Image Chart
1993 12 6 18 14.0 131.3 980 55 4 Image Chart
1993 12 7 00 14.7 130.6 980 55 4 Image Chart
1993 12 7 06 15.5 130.0 980 55 4 Image Chart
1993 12 7 12 16.1 129.7 980 55 4 Image Chart
1993 12 7 18 16.6 129.7 975 60 4 Image Chart
1993 12 8 00 16.8 129.9 975 60 4 Image Chart
1993 12 8 06 16.4 130.0 975 60 4 Image Chart
1993 12 8 12 16.0 130.0 975 60 4 Image Chart
1993 12 8 18 15.4 129.5 975 60 4 Image Chart
1993 12 9 00 14.6 128.6 970 65 5 Image Chart
1993 12 9 06 13.9 127.6 960 75 5 Image Chart
1993 12 9 12 13.4 126.4 955 75 5 Image Chart
1993 12 9 18 12.9 125.1 960 75 5 Image Chart
1993 12 10 00 12.6 124.0 970 65 5 Image Chart
1993 12 10 06 12.5 123.0 980 55 4 Image Chart
1993 12 10 12 12.4 122.2 985 50 4 Image Chart
1993 12 10 18 12.1 121.4 990 45 3 Image Chart
1993 12 11 00 11.9 120.7 994 40 3 Image Chart
1993 12 11 06 11.7 120.0 996 35 3 Image Chart
1993 12 11 12 11.4 119.0 996 35 3 Image Chart
1993 12 11 18 11.1 118.1 996 35 3 Image Chart
1993 12 12 00 11.0 117.2 996 35 3 Image Chart
1993 12 12 06 11.0 116.4 998 0 2 Image Chart
1993 12 12 12 11.0 115.7 998 0 2 Image Chart
1993 12 12 18 11.0 115.0 998 0 2 Image Chart
1993 12 13 00 10.9 114.2 998 0 2 Image Chart
1993 12 13 06 10.8 113.3 996 35 3 Image Chart
1993 12 13 12 10.5 112.3 996 35 3 Image Chart
1993 12 13 18 10.0 111.2 996 35 3 Image Chart
1993 12 14 00 9.3 110.0 996 35 3 Image Chart
1993 12 14 06 8.5 109.0 998 0 2 Image Chart
1993 12 14 12 7.8 107.8 1002 0 2 Image Chart
1993 12 14 18 7.3 106.5 1004 0 2 Image Chart
1993 12 15 00 7.0 105.2 1004 0 2 Image Chart
1993 12 15 06 7.0 104.0 1006 0 2 Image Chart
1993 12 15 12 7.0 102.7 1006 0 2 Image Chart
1993 12 15 18 6.8 101.5 1008 0 2 Image Chart
1993 12 16 00 6.5 100.5 1008 0 2 Image Chart
Japan Meteorological Agency Best Track Data | Correction Date : 1994-01-10
< Typhoon 199326 1993 Season Typhoon 199328 >

Help